sensor_id;sensor_type;location;lat;lon;timestamp;temperature;humidity
32698;DHT22;19087;51.062;3.754;2023-08-12T00:01:59;22.50;99.90
32698;DHT22;19087;51.062;3.754;2023-08-12T00:04:25;22.50;99.90
32698;DHT22;19087;51.062;3.754;2023-08-12T00:06:51;22.60;99.90
32698;DHT22;19087;51.062;3.754;2023-08-12T00:09:16;22.50;99.90
32698;DHT22;19087;51.062;3.754;2023-08-12T00:11:43;22.50;99.90
32698;DHT22;19087;51.062;3.754;2023-08-12T00:14:09;22.60;99.90
32698;DHT22;19087;51.062;3.754;2023-08-12T00:16:35;22.60;99.90
32698;DHT22;19087;51.062;3.754;2023-08-12T00:19:00;22.50;99.90
32698;DHT22;19087;51.062;3.754;2023-08-12T00:21:28;22.50;99.90
32698;DHT22;19087;51.062;3.754;2023-08-12T00:23:54;22.50;99.90
32698;DHT22;19087;51.062;3.754;2023-08-12T00:26:21;22.50;99.90
32698;DHT22;19087;51.062;3.754;2023-08-12T00:28:48;22.50;99.90
32698;DHT22;19087;51.062;3.754;2023-08-12T00:31:14;22.40;99.90
32698;DHT22;19087;51.062;3.754;2023-08-12T00:33:40;22.40;99.90
32698;DHT22;19087;51.062;3.754;2023-08-12T00:36:06;22.40;99.90
32698;DHT22;19087;51.062;3.754;2023-08-12T00:38:32;22.50;99.90
32698;DHT22;19087;51.062;3.754;2023-08-12T00:40:58;22.50;99.90
32698;DHT22;19087;51.062;3.754;2023-08-12T00:43:24;22.50;99.90
32698;DHT22;19087;51.062;3.754;2023-08-12T00:45:49;22.40;99.90
32698;DHT22;19087;51.062;3.754;2023-08-12T00:48:17;22.40;99.90
32698;DHT22;19087;51.062;3.754;2023-08-12T00:50:43;22.40;99.90
32698;DHT22;19087;51.062;3.754;2023-08-12T00:53:10;22.50;99.90
32698;DHT22;19087;51.062;3.754;2023-08-12T00:55:36;22.40;99.90
32698;DHT22;19087;51.062;3.754;2023-08-12T00:58:03;22.10;99.90
32698;DHT22;19087;51.062;3.754;2023-08-12T01:00:31;22.00;99.90
32698;DHT22;19087;51.062;3.754;2023-08-12T01:02:57;22.00;99.90
32698;DHT22;19087;51.062;3.754;2023-08-12T01:05:23;22.00;99.90
32698;DHT22;19087;51.062;3.754;2023-08-12T01:07:49;22.00;99.90
32698;DHT22;19087;51.062;3.754;2023-08-12T01:10:16;22.10;99.90
32698;DHT22;19087;51.062;3.754;2023-08-12T01:13:08;22.20;99.90
32698;DHT22;19087;51.062;3.754;2023-08-12T01:15:40;22.20;99.90
32698;DHT22;19087;51.062;3.754;2023-08-12T01:18:06;22.30;99.90
32698;DHT22;19087;51.062;3.754;2023-08-12T01:20:32;22.20;99.90
32698;DHT22;19087;51.062;3.754;2023-08-12T01:23:14;22.20;99.90
32698;DHT22;19087;51.062;3.754;2023-08-12T01:25:42;22.20;99.90
32698;DHT22;19087;51.062;3.754;2023-08-12T01:28:08;22.20;99.90
32698;DHT22;19087;51.062;3.754;2023-08-12T01:30:43;22.20;99.90
32698;DHT22;19087;51.062;3.754;2023-08-12T01:33:20;22.30;99.90
32698;DHT22;19087;51.062;3.754;2023-08-12T01:35:53;22.30;99.90
32698;DHT22;19087;51.062;3.754;2023-08-12T01:38:22;22.30;99.90
32698;DHT22;19087;51.062;3.754;2023-08-12T01:40:49;22.40;99.90
32698;DHT22;19087;51.062;3.754;2023-08-12T01:43:15;22.20;99.90
32698;DHT22;19087;51.062;3.754;2023-08-12T01:45:41;22.20;99.90
32698;DHT22;19087;51.062;3.754;2023-08-12T01:48:08;22.10;99.90
32698;DHT22;19087;51.062;3.754;2023-08-12T01:50:34;22.10;99.90
32698;DHT22;19087;51.062;3.754;2023-08-12T01:52:59;22.10;99.90
32698;DHT22;19087;51.062;3.754;2023-08-12T01:55:25;22.10;99.90
32698;DHT22;19087;51.062;3.754;2023-08-12T01:57:51;22.10;99.90
32698;DHT22;19087;51.062;3.754;2023-08-12T02:00:18;22.20;99.90
32698;DHT22;19087;51.062;3.754;2023-08-12T02:02:44;22.20;99.90
32698;DHT22;19087;51.062;3.754;2023-08-12T02:05:12;22.10;99.90
32698;DHT22;19087;51.062;3.754;2023-08-12T02:07:38;22.10;99.90
32698;DHT22;19087;51.062;3.754;2023-08-12T02:10:04;22.10;99.90
32698;DHT22;19087;51.062;3.754;2023-08-12T02:12:30;22.10;99.90
32698;DHT22;19087;51.062;3.754;2023-08-12T02:14:56;22.10;99.90
32698;DHT22;19087;51.062;3.754;2023-08-12T02:17:22;22.10;99.90
32698;DHT22;19087;51.062;3.754;2023-08-12T02:19:47;22.10;99.90
32698;DHT22;19087;51.062;3.754;2023-08-12T02:22:13;22.10;99.90
32698;DHT22;19087;51.062;3.754;2023-08-12T02:24:39;22.10;99.90
32698;DHT22;19087;51.062;3.754;2023-08-12T02:27:05;22.20;99.90
32698;DHT22;19087;51.062;3.754;2023-08-12T02:29:30;22.20;99.90
32698;DHT22;19087;51.062;3.754;2023-08-12T02:31:56;22.10;99.90
32698;DHT22;19087;51.062;3.754;2023-08-12T02:34:22;22.00;99.90
32698;DHT22;19087;51.062;3.754;2023-08-12T02:36:48;21.90;99.90
32698;DHT22;19087;51.062;3.754;2023-08-12T02:39:14;21.60;99.90
32698;DHT22;19087;51.062;3.754;2023-08-12T02:41:39;21.60;99.90
32698;DHT22;19087;51.062;3.754;2023-08-12T02:44:05;21.60;99.90
32698;DHT22;19087;51.062;3.754;2023-08-12T02:46:31;21.50;99.90
32698;DHT22;19087;51.062;3.754;2023-08-12T02:48:57;21.50;99.90
32698;DHT22;19087;51.062;3.754;2023-08-12T02:51:22;21.50;99.90
32698;DHT22;19087;51.062;3.754;2023-08-12T02:53:48;21.60;99.90
32698;DHT22;19087;51.062;3.754;2023-08-12T02:56:14;21.70;99.90
32698;DHT22;19087;51.062;3.754;2023-08-12T02:58:40;21.60;99.90
32698;DHT22;19087;51.062;3.754;2023-08-12T03:01:05;21.50;99.90
32698;DHT22;19087;51.062;3.754;2023-08-12T03:03:31;21.60;99.90
32698;DHT22;19087;51.062;3.754;2023-08-12T03:05:57;21.60;99.90
32698;DHT22;19087;51.062;3.754;2023-08-12T03:08:29;21.60;99.90
32698;DHT22;19087;51.062;3.754;2023-08-12T03:11:01;21.50;99.90
32698;DHT22;19087;51.062;3.754;2023-08-12T03:13:28;21.40;99.90
32698;DHT22;19087;51.062;3.754;2023-08-12T03:15:54;21.40;99.90
32698;DHT22;19087;51.062;3.754;2023-08-12T03:18:20;21.40;99.90
32698;DHT22;19087;51.062;3.754;2023-08-12T03:20:46;21.30;99.90
32698;DHT22;19087;51.062;3.754;2023-08-12T03:23:12;21.30;99.90
32698;DHT22;19087;51.062;3.754;2023-08-12T03:25:38;21.30;99.90
32698;DHT22;19087;51.062;3.754;2023-08-12T03:28:04;21.20;99.90
32698;DHT22;19087;51.062;3.754;2023-08-12T03:30:30;21.20;99.90
32698;DHT22;19087;51.062;3.754;2023-08-12T03:32:57;21.20;99.90
32698;DHT22;19087;51.062;3.754;2023-08-12T03:35:22;21.10;99.90
32698;DHT22;19087;51.062;3.754;2023-08-12T03:37:48;21.00;99.90
32698;DHT22;19087;51.062;3.754;2023-08-12T03:40:14;21.10;99.90
32698;DHT22;19087;51.062;3.754;2023-08-12T03:42:40;21.10;99.90
32698;DHT22;19087;51.062;3.754;2023-08-12T03:45:06;21.10;99.90
32698;DHT22;19087;51.062;3.754;2023-08-12T03:47:32;21.20;99.90
32698;DHT22;19087;51.062;3.754;2023-08-12T03:49:58;21.20;99.90
32698;DHT22;19087;51.062;3.754;2023-08-12T03:52:23;21.10;99.90
32698;DHT22;19087;51.062;3.754;2023-08-12T03:54:49;21.10;99.90
32698;DHT22;19087;51.062;3.754;2023-08-12T03:57:15;21.10;99.90
32698;DHT22;19087;51.062;3.754;2023-08-12T03:59:41;21.10;99.90
32698;DHT22;19087;51.062;3.754;2023-08-12T04:02:07;21.10;99.90
32698;DHT22;19087;51.062;3.754;2023-08-12T04:04:32;21.10;99.90
32698;DHT22;19087;51.062;3.754;2023-08-12T04:06:58;21.20;99.90
32698;DHT22;19087;51.062;3.754;2023-08-12T04:09:24;21.10;99.90
32698;DHT22;19087;51.062;3.754;2023-08-12T04:11:50;21.00;99.90
32698;DHT22;19087;51.062;3.754;2023-08-12T04:14:17;21.00;99.90
32698;DHT22;19087;51.062;3.754;2023-08-12T04:16:43;21.10;99.90
32698;DHT22;19087;51.062;3.754;2023-08-12T04:19:09;21.10;99.90
32698;DHT22;19087;51.062;3.754;2023-08-12T04:21:35;21.10;99.90
32698;DHT22;19087;51.062;3.754;2023-08-12T04:24:00;21.10;99.90
32698;DHT22;19087;51.062;3.754;2023-08-12T04:26:26;21.10;99.90
32698;DHT22;19087;51.062;3.754;2023-08-12T04:28:52;21.10;99.90
32698;DHT22;19087;51.062;3.754;2023-08-12T04:31:18;21.10;99.90
32698;DHT22;19087;51.062;3.754;2023-08-12T04:33:43;21.00;99.90
32698;DHT22;19087;51.062;3.754;2023-08-12T04:36:09;20.90;99.90
32698;DHT22;19087;51.062;3.754;2023-08-12T04:38:35;20.90;99.90
32698;DHT22;19087;51.062;3.754;2023-08-12T04:41:00;21.00;99.90
32698;DHT22;19087;51.062;3.754;2023-08-12T04:43:26;21.10;99.90
32698;DHT22;19087;51.062;3.754;2023-08-12T04:45:52;21.10;99.90
32698;DHT22;19087;51.062;3.754;2023-08-12T04:48:19;21.10;99.90
32698;DHT22;19087;51.062;3.754;2023-08-12T04:50:45;21.10;99.90
32698;DHT22;19087;51.062;3.754;2023-08-12T04:53:10;21.10;99.90
32698;DHT22;19087;51.062;3.754;2023-08-12T04:55:36;21.10;99.90
32698;DHT22;19087;51.062;3.754;2023-08-12T04:58:05;21.10;99.90
32698;DHT22;19087;51.062;3.754;2023-08-12T05:00:31;21.00;99.90
32698;DHT22;19087;51.062;3.754;2023-08-12T05:02:59;21.00;99.90
32698;DHT22;19087;51.062;3.754;2023-08-12T05:05:26;21.20;99.90
32698;DHT22;19087;51.062;3.754;2023-08-12T05:07:52;21.20;99.90
32698;DHT22;19087;51.062;3.754;2023-08-12T05:10:18;21.20;99.90
32698;DHT22;19087;51.062;3.754;2023-08-12T05:12:44;21.30;99.90
32698;DHT22;19087;51.062;3.754;2023-08-12T05:15:10;21.10;99.90
32698;DHT22;19087;51.062;3.754;2023-08-12T05:17:37;21.20;99.90
32698;DHT22;19087;51.062;3.754;2023-08-12T05:20:03;21.30;99.90
32698;DHT22;19087;51.062;3.754;2023-08-12T05:22:29;21.30;99.90
32698;DHT22;19087;51.062;3.754;2023-08-12T05:24:55;21.20;99.90
32698;DHT22;19087;51.062;3.754;2023-08-12T05:27:21;21.20;99.90
32698;DHT22;19087;51.062;3.754;2023-08-12T05:29:46;21.10;99.90
32698;DHT22;19087;51.062;3.754;2023-08-12T05:32:12;21.10;99.90
32698;DHT22;19087;51.062;3.754;2023-08-12T05:34:38;21.10;99.90
32698;DHT22;19087;51.062;3.754;2023-08-12T05:37:04;21.10;99.90
32698;DHT22;19087;51.062;3.754;2023-08-12T05:39:32;21.00;99.90
32698;DHT22;19087;51.062;3.754;2023-08-12T05:41:58;21.00;99.90
32698;DHT22;19087;51.062;3.754;2023-08-12T05:44:24;21.00;99.90
32698;DHT22;19087;51.062;3.754;2023-08-12T05:46:52;20.90;99.90
32698;DHT22;19087;51.062;3.754;2023-08-12T05:49:22;20.70;99.90
32698;DHT22;19087;51.062;3.754;2023-08-12T05:51:48;20.60;99.90
32698;DHT22;19087;51.062;3.754;2023-08-12T05:54:15;20.60;99.90
32698;DHT22;19087;51.062;3.754;2023-08-12T05:56:44;20.40;99.90
32698;DHT22;19087;51.062;3.754;2023-08-12T05:59:10;20.40;99.90
32698;DHT22;19087;51.062;3.754;2023-08-12T06:01:36;20.20;99.90
32698;DHT22;19087;51.062;3.754;2023-08-12T06:04:02;20.10;99.90
32698;DHT22;19087;51.062;3.754;2023-08-12T06:06:34;20.10;99.90
32698;DHT22;19087;51.062;3.754;2023-08-12T06:09:00;20.00;99.90
32698;DHT22;19087;51.062;3.754;2023-08-12T06:11:26;20.00;99.90
32698;DHT22;19087;51.062;3.754;2023-08-12T06:13:52;20.00;99.90
32698;DHT22;19087;51.062;3.754;2023-08-12T06:16:18;20.00;99.90
32698;DHT22;19087;51.062;3.754;2023-08-12T06:18:43;20.00;99.90
32698;DHT22;19087;51.062;3.754;2023-08-12T06:21:09;20.10;99.90
32698;DHT22;19087;51.062;3.754;2023-08-12T06:23:35;20.30;99.90
32698;DHT22;19087;51.062;3.754;2023-08-12T06:26:05;20.30;99.90
32698;DHT22;19087;51.062;3.754;2023-08-12T06:28:34;20.30;99.90
32698;DHT22;19087;51.062;3.754;2023-08-12T06:30:59;20.30;99.90
32698;DHT22;19087;51.062;3.754;2023-08-12T06:33:25;20.30;99.90
32698;DHT22;19087;51.062;3.754;2023-08-12T06:36:11;20.40;99.90
32698;DHT22;19087;51.062;3.754;2023-08-12T06:38:38;20.50;99.90
32698;DHT22;19087;51.062;3.754;2023-08-12T06:41:30;20.70;99.90
32698;DHT22;19087;51.062;3.754;2023-08-12T06:44:06;20.80;99.90
32698;DHT22;19087;51.062;3.754;2023-08-12T06:46:39;20.80;99.90
32698;DHT22;19087;51.062;3.754;2023-08-12T06:49:06;20.90;99.90
32698;DHT22;19087;51.062;3.754;2023-08-12T06:51:34;21.00;99.90
32698;DHT22;19087;51.062;3.754;2023-08-12T06:54:00;21.40;99.90
32698;DHT22;19087;51.062;3.754;2023-08-12T06:56:26;21.60;99.90
32698;DHT22;19087;51.062;3.754;2023-08-12T06:58:58;21.80;99.90
32698;DHT22;19087;51.062;3.754;2023-08-12T07:01:26;21.90;99.90
32698;DHT22;19087;51.062;3.754;2023-08-12T07:03:52;22.10;99.90
32698;DHT22;19087;51.062;3.754;2023-08-12T07:06:18;22.20;99.90
32698;DHT22;19087;51.062;3.754;2023-08-12T07:08:44;22.10;99.90
32698;DHT22;19087;51.062;3.754;2023-08-12T07:11:09;22.10;99.90
32698;DHT22;19087;51.062;3.754;2023-08-12T07:13:35;22.10;99.90
32698;DHT22;19087;51.062;3.754;2023-08-12T07:16:02;22.10;99.90
32698;DHT22;19087;51.062;3.754;2023-08-12T07:18:31;22.10;99.90
32698;DHT22;19087;51.062;3.754;2023-08-12T07:21:00;22.20;99.90
32698;DHT22;19087;51.062;3.754;2023-08-12T07:23:27;22.20;99.90
32698;DHT22;19087;51.062;3.754;2023-08-12T07:25:54;22.60;99.90
32698;DHT22;19087;51.062;3.754;2023-08-12T07:28:20;23.10;99.90
32698;DHT22;19087;51.062;3.754;2023-08-12T07:30:45;23.30;99.90
32698;DHT22;19087;51.062;3.754;2023-08-12T07:33:11;23.20;99.90
32698;DHT22;19087;51.062;3.754;2023-08-12T07:35:39;23.40;99.90
32698;DHT22;19087;51.062;3.754;2023-08-12T07:38:04;23.40;99.90
32698;DHT22;19087;51.062;3.754;2023-08-12T07:40:37;23.50;99.90
32698;DHT22;19087;51.062;3.754;2023-08-12T07:43:03;23.80;99.90
32698;DHT22;19087;51.062;3.754;2023-08-12T07:45:31;23.90;99.90
32698;DHT22;19087;51.062;3.754;2023-08-12T07:47:57;24.30;99.90
32698;DHT22;19087;51.062;3.754;2023-08-12T07:50:22;24.30;99.90
32698;DHT22;19087;51.062;3.754;2023-08-12T07:52:49;24.40;99.90
32698;DHT22;19087;51.062;3.754;2023-08-12T07:55:18;24.40;99.90
32698;DHT22;19087;51.062;3.754;2023-08-12T07:57:50;24.60;99.90
32698;DHT22;19087;51.062;3.754;2023-08-12T08:00:16;24.70;99.90
32698;DHT22;19087;51.062;3.754;2023-08-12T08:02:42;24.80;99.90
32698;DHT22;19087;51.062;3.754;2023-08-12T08:05:07;25.10;99.90
32698;DHT22;19087;51.062;3.754;2023-08-12T08:07:39;25.90;99.90
32698;DHT22;19087;51.062;3.754;2023-08-12T08:10:08;26.40;99.90
32698;DHT22;19087;51.062;3.754;2023-08-12T08:12:34;27.50;99.90
32698;DHT22;19087;51.062;3.754;2023-08-12T08:15:03;27.70;99.90
32698;DHT22;19087;51.062;3.754;2023-08-12T08:17:29;28.10;99.90
32698;DHT22;19087;51.062;3.754;2023-08-12T08:19:55;28.10;99.90
32698;DHT22;19087;51.062;3.754;2023-08-12T08:22:22;28.10;99.70
32698;DHT22;19087;51.062;3.754;2023-08-12T08:24:48;27.60;99.80
32698;DHT22;19087;51.062;3.754;2023-08-12T08:27:14;27.30;99.90
32698;DHT22;19087;51.062;3.754;2023-08-12T08:29:39;27.30;99.90
32698;DHT22;19087;51.062;3.754;2023-08-12T08:32:06;27.10;99.90
32698;DHT22;19087;51.062;3.754;2023-08-12T08:34:37;27.10;99.90
32698;DHT22;19087;51.062;3.754;2023-08-12T08:37:02;27.10;99.90
32698;DHT22;19087;51.062;3.754;2023-08-12T08:39:28;26.90;99.90
32698;DHT22;19087;51.062;3.754;2023-08-12T08:41:58;26.80;99.90
32698;DHT22;19087;51.062;3.754;2023-08-12T08:44:29;26.60;99.90
32698;DHT22;19087;51.062;3.754;2023-08-12T08:47:01;26.50;99.90
32698;DHT22;19087;51.062;3.754;2023-08-12T08:49:28;26.50;99.90
32698;DHT22;19087;51.062;3.754;2023-08-12T08:51:56;26.70;99.90
32698;DHT22;19087;51.062;3.754;2023-08-12T08:54:27;27.40;99.90
32698;DHT22;19087;51.062;3.754;2023-08-12T08:56:54;27.70;99.80
32698;DHT22;19087;51.062;3.754;2023-08-12T08:59:21;27.80;99.10
32698;DHT22;19087;51.062;3.754;2023-08-12T09:01:49;27.80;99.60
32698;DHT22;19087;51.062;3.754;2023-08-12T09:04:18;27.80;99.20
32698;DHT22;19087;51.062;3.754;2023-08-12T09:06:49;27.70;98.90
32698;DHT22;19087;51.062;3.754;2023-08-12T09:09:16;27.80;99.40
32698;DHT22;19087;51.062;3.754;2023-08-12T09:12:04;28.00;98.50
32698;DHT22;19087;51.062;3.754;2023-08-12T09:14:31;28.10;98.00
32698;DHT22;19087;51.062;3.754;2023-08-12T09:17:07;27.80;98.20
32698;DHT22;19087;51.062;3.754;2023-08-12T09:19:38;27.90;98.60
32698;DHT22;19087;51.062;3.754;2023-08-12T09:22:08;27.80;98.70
32698;DHT22;19087;51.062;3.754;2023-08-12T09:24:37;27.80;98.30
32698;DHT22;19087;51.062;3.754;2023-08-12T09:27:17;28.00;98.30
32698;DHT22;19087;51.062;3.754;2023-08-12T09:29:43;27.90;97.90
32698;DHT22;19087;51.062;3.754;2023-08-12T09:32:14;28.00;97.90
32698;DHT22;19087;51.062;3.754;2023-08-12T09:34:53;28.00;97.80
32698;DHT22;19087;51.062;3.754;2023-08-12T09:37:23;28.10;98.20
32698;DHT22;19087;51.062;3.754;2023-08-12T09:39:51;28.10;97.40
32698;DHT22;19087;51.062;3.754;2023-08-12T09:42:20;27.80;97.20
32698;DHT22;19087;51.062;3.754;2023-08-12T09:44:47;27.40;97.10
32698;DHT22;19087;51.062;3.754;2023-08-12T09:47:13;27.10;97.50
32698;DHT22;19087;51.062;3.754;2023-08-12T09:49:40;26.90;98.30
32698;DHT22;19087;51.062;3.754;2023-08-12T09:52:08;27.20;98.60
32698;DHT22;19087;51.062;3.754;2023-08-12T09:54:35;27.30;98.40
32698;DHT22;19087;51.062;3.754;2023-08-12T09:57:02;27.60;98.30
32698;DHT22;19087;51.062;3.754;2023-08-12T09:59:31;27.90;97.80
32698;DHT22;19087;51.062;3.754;2023-08-12T10:02:04;27.80;97.30
32698;DHT22;19087;51.062;3.754;2023-08-12T10:04:39;27.60;97.10
32698;DHT22;19087;51.062;3.754;2023-08-12T10:07:12;27.40;97.20
32698;DHT22;19087;51.062;3.754;2023-08-12T10:09:47;26.90;97.50
32698;DHT22;19087;51.062;3.754;2023-08-12T10:12:15;26.60;97.80
32698;DHT22;19087;51.062;3.754;2023-08-12T10:14:43;26.20;98.40
32698;DHT22;19087;51.062;3.754;2023-08-12T10:17:13;25.80;98.50
32698;DHT22;19087;51.062;3.754;2023-08-12T10:19:46;25.60;98.80
32698;DHT22;19087;51.062;3.754;2023-08-12T10:22:14;25.50;99.40
32698;DHT22;19087;51.062;3.754;2023-08-12T10:24:43;25.40;99.60
32698;DHT22;19087;51.062;3.754;2023-08-12T10:27:12;25.40;99.80
32698;DHT22;19087;51.062;3.754;2023-08-12T10:29:41;25.30;99.40
32698;DHT22;19087;51.062;3.754;2023-08-12T10:32:08;25.20;99.30
32698;DHT22;19087;51.062;3.754;2023-08-12T10:34:34;25.20;99.90
32698;DHT22;19087;51.062;3.754;2023-08-12T10:37:02;25.00;99.90
32698;DHT22;19087;51.062;3.754;2023-08-12T10:39:33;25.10;99.90
32698;DHT22;19087;51.062;3.754;2023-08-12T10:41:59;25.10;99.90
32698;DHT22;19087;51.062;3.754;2023-08-12T10:44:40;25.10;99.90
32698;DHT22;19087;51.062;3.754;2023-08-12T10:47:18;25.00;99.90
32698;DHT22;19087;51.062;3.754;2023-08-12T10:49:50;24.80;99.90
32698;DHT22;19087;51.062;3.754;2023-08-12T10:52:35;24.90;99.90
32698;DHT22;19087;51.062;3.754;2023-08-12T10:55:27;24.80;99.90
32698;DHT22;19087;51.062;3.754;2023-08-12T10:58:03;24.80;99.90
32698;DHT22;19087;51.062;3.754;2023-08-12T11:00:38;24.80;99.90
32698;DHT22;19087;51.062;3.754;2023-08-12T11:03:10;24.80;99.90
32698;DHT22;19087;51.062;3.754;2023-08-12T11:05:41;25.10;99.90
32698;DHT22;19087;51.062;3.754;2023-08-12T11:08:27;25.20;99.90
32698;DHT22;19087;51.062;3.754;2023-08-12T11:11:10;25.10;99.90
32698;DHT22;19087;51.062;3.754;2023-08-12T11:13:58;25.00;99.90
32698;DHT22;19087;51.062;3.754;2023-08-12T11:16:37;25.00;99.70
32698;DHT22;19087;51.062;3.754;2023-08-12T11:19:04;25.00;99.60
32698;DHT22;19087;51.062;3.754;2023-08-12T11:21:35;25.00;98.70
32698;DHT22;19087;51.062;3.754;2023-08-12T11:24:04;25.20;99.20
32698;DHT22;19087;51.062;3.754;2023-08-12T11:26:33;25.30;98.90
32698;DHT22;19087;51.062;3.754;2023-08-12T11:28:59;25.20;99.00
32698;DHT22;19087;51.062;3.754;2023-08-12T11:31:25;25.10;99.40
32698;DHT22;19087;51.062;3.754;2023-08-12T11:33:52;25.20;99.00
32698;DHT22;19087;51.062;3.754;2023-08-12T11:36:22;25.20;99.00
32698;DHT22;19087;51.062;3.754;2023-08-12T11:38:48;25.30;98.60
32698;DHT22;19087;51.062;3.754;2023-08-12T11:41:16;25.40;98.60
32698;DHT22;19087;51.062;3.754;2023-08-12T11:43:42;25.50;97.80
32698;DHT22;19087;51.062;3.754;2023-08-12T11:46:09;25.70;98.10
32698;DHT22;19087;51.062;3.754;2023-08-12T11:48:37;25.60;97.70
32698;DHT22;19087;51.062;3.754;2023-08-12T11:51:05;25.70;97.90
32698;DHT22;19087;51.062;3.754;2023-08-12T11:53:30;25.80;97.40
32698;DHT22;19087;51.062;3.754;2023-08-12T11:55:56;26.00;97.40
32698;DHT22;19087;51.062;3.754;2023-08-12T11:58:23;26.20;96.50
32698;DHT22;19087;51.062;3.754;2023-08-12T12:00:50;26.30;96.30
32698;DHT22;19087;51.062;3.754;2023-08-12T12:03:19;26.30;97.00
32698;DHT22;19087;51.062;3.754;2023-08-12T12:05:46;26.40;97.00
32698;DHT22;19087;51.062;3.754;2023-08-12T12:08:13;26.60;97.00
32698;DHT22;19087;51.062;3.754;2023-08-12T12:10:40;26.90;95.80
32698;DHT22;19087;51.062;3.754;2023-08-12T12:13:06;27.00;95.10
32698;DHT22;19087;51.062;3.754;2023-08-12T12:15:42;27.10;94.20
32698;DHT22;19087;51.062;3.754;2023-08-12T12:18:12;26.90;94.20
32698;DHT22;19087;51.062;3.754;2023-08-12T12:23:21;27.20;94.10
32698;DHT22;19087;51.062;3.754;2023-08-12T12:25:47;27.00;93.90
32698;DHT22;19087;51.062;3.754;2023-08-12T12:28:13;26.90;93.80
32698;DHT22;19087;51.062;3.754;2023-08-12T12:30:39;26.90;94.30
32698;DHT22;19087;51.062;3.754;2023-08-12T12:33:04;26.90;94.60
32698;DHT22;19087;51.062;3.754;2023-08-12T12:35:31;26.90;95.10
32698;DHT22;19087;51.062;3.754;2023-08-12T12:37:57;27.10;94.50
32698;DHT22;19087;51.062;3.754;2023-08-12T12:40:23;27.10;94.10
32698;DHT22;19087;51.062;3.754;2023-08-12T12:42:49;27.20;93.60
32698;DHT22;19087;51.062;3.754;2023-08-12T12:45:15;27.40;93.70
32698;DHT22;19087;51.062;3.754;2023-08-12T12:47:41;27.40;93.50
32698;DHT22;19087;51.062;3.754;2023-08-12T12:50:07;27.50;92.30
32698;DHT22;19087;51.062;3.754;2023-08-12T12:52:32;27.50;92.40
32698;DHT22;19087;51.062;3.754;2023-08-12T12:54:58;27.20;92.70
32698;DHT22;19087;51.062;3.754;2023-08-12T12:57:25;27.20;92.60
32698;DHT22;19087;51.062;3.754;2023-08-12T12:59:51;27.10;92.30
32698;DHT22;19087;51.062;3.754;2023-08-12T13:02:18;26.80;91.30
32698;DHT22;19087;51.062;3.754;2023-08-12T13:04:44;26.50;91.60
32698;DHT22;19087;51.062;3.754;2023-08-12T13:07:10;26.40;91.90
32698;DHT22;19087;51.062;3.754;2023-08-12T13:09:35;26.40;92.40
32698;DHT22;19087;51.062;3.754;2023-08-12T13:12:01;26.20;92.40
32698;DHT22;19087;51.062;3.754;2023-08-12T13:14:27;26.30;92.20
32698;DHT22;19087;51.062;3.754;2023-08-12T13:16:55;26.30;91.60
32698;DHT22;19087;51.062;3.754;2023-08-12T13:19:22;26.40;91.40
32698;DHT22;19087;51.062;3.754;2023-08-12T13:21:49;26.40;91.60
32698;DHT22;19087;51.062;3.754;2023-08-12T13:24:14;26.30;91.70
32698;DHT22;19087;51.062;3.754;2023-08-12T13:26:41;26.10;92.00
32698;DHT22;19087;51.062;3.754;2023-08-12T13:29:06;26.30;92.20
32698;DHT22;19087;51.062;3.754;2023-08-12T13:31:32;26.40;91.80
32698;DHT22;19087;51.062;3.754;2023-08-12T13:33:58;26.50;92.00
32698;DHT22;19087;51.062;3.754;2023-08-12T13:36:24;26.50;91.40
32698;DHT22;19087;51.062;3.754;2023-08-12T13:38:53;26.50;91.10
32698;DHT22;19087;51.062;3.754;2023-08-12T13:41:19;26.40;90.60
32698;DHT22;19087;51.062;3.754;2023-08-12T13:43:45;26.30;90.10
32698;DHT22;19087;51.062;3.754;2023-08-12T13:46:11;26.30;90.60
32698;DHT22;19087;51.062;3.754;2023-08-12T13:48:36;26.20;90.70
32698;DHT22;19087;51.062;3.754;2023-08-12T13:51:03;26.20;90.30
32698;DHT22;19087;51.062;3.754;2023-08-12T13:53:29;26.10;90.10
32698;DHT22;19087;51.062;3.754;2023-08-12T13:55:56;26.10;90.20
32698;DHT22;19087;51.062;3.754;2023-08-12T13:58:22;26.20;90.70
32698;DHT22;19087;51.062;3.754;2023-08-12T14:00:48;26.30;88.30
32698;DHT22;19087;51.062;3.754;2023-08-12T14:03:15;26.40;90.30
32698;DHT22;19087;51.062;3.754;2023-08-12T14:05:41;26.50;88.80
32698;DHT22;19087;51.062;3.754;2023-08-12T14:08:07;26.60;89.00
32698;DHT22;19087;51.062;3.754;2023-08-12T14:10:34;26.60;88.80
32698;DHT22;19087;51.062;3.754;2023-08-12T14:13:03;26.60;89.00
32698;DHT22;19087;51.062;3.754;2023-08-12T14:15:29;26.70;89.10
32698;DHT22;19087;51.062;3.754;2023-08-12T14:17:54;26.90;89.30
32698;DHT22;19087;51.062;3.754;2023-08-12T14:20:20;27.00;87.50
32698;DHT22;19087;51.062;3.754;2023-08-12T14:22:46;27.00;87.50
32698;DHT22;19087;51.062;3.754;2023-08-12T14:25:15;26.90;87.10
32698;DHT22;19087;51.062;3.754;2023-08-12T14:27:41;26.60;88.10
32698;DHT22;19087;51.062;3.754;2023-08-12T14:30:09;26.20;89.60
32698;DHT22;19087;51.062;3.754;2023-08-12T14:32:38;26.20;89.10
32698;DHT22;19087;51.062;3.754;2023-08-12T14:35:10;26.30;88.60
32698;DHT22;19087;51.062;3.754;2023-08-12T14:37:41;26.30;89.50
32698;DHT22;19087;51.062;3.754;2023-08-12T14:40:07;26.40;89.10
32698;DHT22;19087;51.062;3.754;2023-08-12T14:42:36;26.40;88.70
32698;DHT22;19087;51.062;3.754;2023-08-12T14:45:02;26.50;88.10
32698;DHT22;19087;51.062;3.754;2023-08-12T14:47:29;26.60;88.40
32698;DHT22;19087;51.062;3.754;2023-08-12T14:49:55;26.60;87.20
32698;DHT22;19087;51.062;3.754;2023-08-12T14:52:22;26.40;88.10
32698;DHT22;19087;51.062;3.754;2023-08-12T14:54:48;26.50;87.60
32698;DHT22;19087;51.062;3.754;2023-08-12T14:57:14;26.40;87.80
32698;DHT22;19087;51.062;3.754;2023-08-12T14:59:41;26.40;88.80
32698;DHT22;19087;51.062;3.754;2023-08-12T15:02:07;26.40;87.80
32698;DHT22;19087;51.062;3.754;2023-08-12T15:04:35;26.50;86.80
32698;DHT22;19087;51.062;3.754;2023-08-12T15:07:01;26.50;85.40
32698;DHT22;19087;51.062;3.754;2023-08-12T15:09:29;26.30;85.80
32698;DHT22;19087;51.062;3.754;2023-08-12T15:11:55;26.30;86.30
32698;DHT22;19087;51.062;3.754;2023-08-12T15:14:21;26.20;85.70
32698;DHT22;19087;51.062;3.754;2023-08-12T15:16:46;26.10;87.30
32698;DHT22;19087;51.062;3.754;2023-08-12T15:19:13;26.10;86.90
32698;DHT22;19087;51.062;3.754;2023-08-12T15:21:42;26.00;87.50
32698;DHT22;19087;51.062;3.754;2023-08-12T15:24:08;26.00;87.60
32698;DHT22;19087;51.062;3.754;2023-08-12T15:26:33;26.10;87.70
32698;DHT22;19087;51.062;3.754;2023-08-12T15:28:59;26.10;86.60
32698;DHT22;19087;51.062;3.754;2023-08-12T15:31:25;26.00;86.40
32698;DHT22;19087;51.062;3.754;2023-08-12T15:33:51;25.90;87.20
32698;DHT22;19087;51.062;3.754;2023-08-12T15:36:16;26.00;87.40